createdAt,value
2023-02-06T00:01:17.909Z,32.78
2023-02-06T00:03:44.668Z,33.05
2023-02-06T00:06:11.445Z,32.78
2023-02-06T00:08:38.210Z,30.40
2023-02-06T00:11:07.575Z,28.90
2023-02-06T00:13:35.708Z,34.83
2023-02-06T00:16:03.132Z,34.30
2023-02-06T00:18:30.515Z,31.00
2023-02-06T00:20:57.256Z,34.83
2023-02-06T00:23:24.058Z,33.03
2023-02-06T00:25:51.214Z,31.52
2023-02-06T00:28:18.036Z,28.08
2023-02-06T00:30:47.789Z,35.83
2023-02-06T00:33:14.640Z,30.80
2023-02-06T00:35:41.474Z,29.73
2023-02-06T00:38:10.620Z,32.70
2023-02-06T00:40:38.146Z,29.30
2023-02-06T00:43:04.893Z,39.67
2023-02-06T00:45:31.682Z,33.08
2023-02-06T00:47:58.569Z,37.53
2023-02-06T00:50:25.288Z,30.88
2023-02-06T00:52:52.128Z,33.90
2023-02-06T00:55:18.886Z,33.15
2023-02-06T00:57:45.658Z,34.13
2023-02-06T01:00:13.066Z,34.70
2023-02-06T01:02:39.875Z,31.48
2023-02-06T01:05:06.921Z,32.78
2023-02-06T01:07:33.635Z,31.30
2023-02-06T01:10:00.334Z,39.75
2023-02-06T01:12:27.163Z,32.33
2023-02-06T01:14:57.117Z,35.55
2023-02-06T01:17:23.804Z,34.38
2023-02-06T01:20:02.958Z,32.72
2023-02-06T01:22:29.677Z,36.80
2023-02-06T01:24:56.391Z,38.42
2023-02-06T01:27:23.135Z,33.08
2023-02-06T01:29:50.176Z,34.53
2023-02-06T01:32:16.845Z,34.65
2023-02-06T01:34:43.790Z,38.40
2023-02-06T01:37:10.607Z,33.75
2023-02-06T01:39:37.885Z,39.40
2023-02-06T01:42:05.457Z,40.63
2023-02-06T01:44:34.107Z,36.83
2023-02-06T01:47:00.795Z,36.75
2023-02-06T01:49:43.095Z,38.92
2023-02-06T01:52:15.730Z,37.50
2023-02-06T01:54:43.098Z,34.55
2023-02-06T01:57:12.139Z,34.58
2023-02-06T02:02:09.047Z,37.60
2023-02-06T02:04:35.820Z,34.28
2023-02-06T02:07:17.888Z,32.42
2023-02-06T02:09:44.587Z,35.70
2023-02-06T02:12:11.581Z,35.42
2023-02-06T02:14:40.943Z,32.45
2023-02-06T02:17:44.079Z,33.13
2023-02-06T02:20:35.607Z,40.08
2023-02-06T02:23:30.474Z,34.17
2023-02-06T02:26:18.810Z,39.72
2023-02-06T02:29:04.657Z,35.88
2023-02-06T02:31:47.119Z,37.55
2023-02-06T02:34:31.766Z,32.20
2023-02-06T02:37:22.502Z,34.90
2023-02-06T02:40:03.963Z,39.45
2023-02-06T02:42:44.153Z,33.92
2023-02-06T02:45:21.298Z,39.53
2023-02-06T02:47:57.090Z,33.83
2023-02-06T02:50:24.552Z,33.25
2023-02-06T02:52:51.799Z,42.50
2023-02-06T02:55:23.506Z,35.83
2023-02-06T02:57:54.156Z,38.50
2023-02-06T03:00:23.420Z,34.88
2023-02-06T03:02:51.648Z,37.05
2023-02-06T03:05:25.329Z,35.58
2023-02-06T03:08:06.698Z,34.50
2023-02-06T03:10:44.237Z,34.80
2023-02-06T03:13:21.694Z,37.70
2023-02-06T03:15:53.365Z,35.83
2023-02-06T03:18:31.360Z,34.08
2023-02-06T03:21:00.380Z,35.75
2023-02-06T03:23:32.755Z,36.05
2023-02-06T03:26:04.402Z,33.42
2023-02-06T03:28:44.118Z,39.47
2023-02-06T03:31:18.434Z,34.72
2023-02-06T03:33:54.970Z,35.88
2023-02-06T03:36:22.230Z,38.38
2023-02-06T03:38:52.486Z,37.47
2023-02-06T03:41:24.292Z,35.00
2023-02-06T03:43:53.001Z,39.97
2023-02-06T03:46:20.868Z,36.83
2023-02-06T03:48:54.356Z,37.03
2023-02-06T03:51:44.234Z,37.78
2023-02-06T03:54:14.139Z,38.03
2023-02-06T03:56:44.154Z,32.47
2023-02-06T03:59:11.192Z,32.53
2023-02-06T04:01:44.688Z,33.30
2023-02-06T04:04:29.268Z,34.95
2023-02-06T04:07:02.839Z,31.30
2023-02-06T04:09:30.151Z,34.65
2023-02-06T04:11:56.845Z,31.95
2023-02-06T04:14:23.676Z,33.75
2023-02-06T04:16:50.471Z,34.55
2023-02-06T04:19:17.365Z,31.92
2023-02-06T04:21:44.108Z,29.45
2023-02-06T04:24:11.180Z,33.90
2023-02-06T04:26:37.877Z,32.92
2023-02-06T04:29:04.595Z,32.53
2023-02-06T04:31:31.377Z,32.05
2023-02-06T04:33:59.131Z,32.33
2023-02-06T04:36:25.862Z,34.78
2023-02-06T04:38:55.576Z,34.13
2023-02-06T04:41:22.749Z,32.42
2023-02-06T04:43:49.568Z,36.92
2023-02-06T04:46:16.289Z,36.53
2023-02-06T04:51:08.456Z,36.45
2023-02-06T04:53:35.880Z,33.70
2023-02-06T04:56:08.474Z,35.80
2023-02-06T04:58:36.268Z,35.35
2023-02-06T05:01:06.726Z,37.55
2023-02-06T05:03:33.728Z,32.13
2023-02-06T05:06:02.255Z,42.38
2023-02-06T05:08:29.845Z,39.65
2023-02-06T05:10:57.201Z,31.20
2023-02-06T05:13:24.274Z,40.47
2023-02-06T05:15:51.071Z,40.63
2023-02-06T05:18:18.038Z,36.55
2023-02-06T05:20:44.991Z,40.03
2023-02-06T05:23:14.449Z,34.97
2023-02-06T05:25:42.332Z,37.17
2023-02-06T05:28:08.611Z,34.92
2023-02-06T05:30:35.895Z,38.25
2023-02-06T05:33:02.655Z,38.92
2023-02-06T05:35:29.886Z,41.00
2023-02-06T05:37:57.689Z,42.33
2023-02-06T05:40:24.615Z,38.40
2023-02-06T05:42:51.433Z,37.10
2023-02-06T05:45:19.401Z,45.40
2023-02-06T05:47:46.122Z,34.03
2023-02-06T05:50:12.875Z,38.05
2023-02-06T05:52:39.760Z,39.22
2023-02-06T05:55:07.088Z,41.08
2023-02-06T05:57:33.989Z,40.40
2023-02-06T06:00:00.785Z,38.80
2023-02-06T06:02:27.577Z,42.80
2023-02-06T06:04:54.346Z,38.77
2023-02-06T06:07:21.177Z,38.55
2023-02-06T06:09:48.101Z,39.03
2023-02-06T06:12:15.629Z,40.33
2023-02-06T06:17:12.135Z,43.63
2023-02-06T06:19:38.791Z,44.17
2023-02-06T06:22:09.073Z,47.80
2023-02-06T06:24:35.772Z,40.57
2023-02-06T06:27:03.913Z,50.27
2023-02-06T06:29:30.793Z,54.33
2023-02-06T06:31:57.528Z,45.30
2023-02-06T06:34:27.724Z,47.97
2023-02-06T06:36:54.456Z,46.40
2023-02-06T06:39:24.423Z,49.25
2023-02-06T06:41:51.114Z,46.25
2023-02-06T06:44:18.300Z,49.58
2023-02-06T06:46:45.075Z,47.47
2023-02-06T06:49:11.819Z,47.20
2023-02-06T06:51:38.573Z,45.88
2023-02-06T06:54:05.309Z,48.08
2023-02-06T06:56:32.196Z,45.77
2023-02-06T06:58:58.877Z,44.75
2023-02-06T07:01:25.701Z,47.60
2023-02-06T07:03:52.627Z,47.25
2023-02-06T07:06:19.802Z,53.80
2023-02-06T07:08:46.503Z,45.40
2023-02-06T07:11:14.907Z,47.08
2023-02-06T07:16:09.756Z,45.58
2023-02-06T07:18:38.638Z,49.67
2023-02-06T07:21:06.395Z,42.05
2023-02-06T07:23:33.895Z,43.60
2023-02-06T07:26:02.477Z,46.22
2023-02-06T07:28:30.970Z,41.08
2023-02-06T07:31:07.312Z,46.28
2023-02-06T07:33:34.446Z,47.17
2023-02-06T07:36:04.026Z,51.22
2023-02-06T07:38:31.033Z,45.70
2023-02-06T07:41:01.910Z,39.13
2023-02-06T07:43:28.971Z,42.90
2023-02-06T07:46:00.164Z,44.88
2023-02-06T07:48:27.451Z,44.97
2023-02-06T07:50:54.493Z,40.67
2023-02-06T07:53:24.493Z,41.30
2023-02-06T07:55:51.303Z,36.08
2023-02-06T07:58:18.409Z,42.47
2023-02-06T08:00:45.955Z,37.10
2023-02-06T08:03:12.984Z,39.22
2023-02-06T08:05:39.815Z,37.65
2023-02-06T08:08:07.371Z,31.10
2023-02-06T08:10:34.200Z,32.28
2023-02-06T08:13:01.297Z,33.63
2023-02-06T08:15:28.011Z,40.83
2023-02-06T08:17:57.922Z,30.98
2023-02-06T08:20:24.717Z,34.10
2023-02-06T08:22:51.663Z,29.88
2023-02-06T08:25:18.466Z,30.80
2023-02-06T08:27:45.512Z,28.30
2023-02-06T08:30:12.900Z,28.77
2023-02-06T08:32:39.739Z,47.20
2023-02-06T08:35:06.810Z,36.97
2023-02-06T08:37:33.559Z,31.30
2023-02-06T08:40:00.583Z,30.08
2023-02-06T08:42:27.323Z,29.10
2023-02-06T08:44:54.268Z,28.02
2023-02-06T08:47:21.002Z,31.80
2023-02-06T08:49:50.953Z,28.65
2023-02-06T08:52:18.107Z,27.10
2023-02-06T08:54:44.806Z,23.85
2023-02-06T08:57:13.062Z,27.88
2023-02-06T08:59:39.861Z,29.60
2023-02-06T09:02:08.552Z,27.58
2023-02-06T09:04:37.855Z,28.67
2023-02-06T09:07:04.693Z,29.75
2023-02-06T09:09:31.418Z,33.25
2023-02-06T09:12:04.261Z,31.92
2023-02-06T09:14:32.363Z,30.80
2023-02-06T09:16:59.142Z,27.38
2023-02-06T09:19:26.935Z,26.95
2023-02-06T09:21:54.871Z,23.48
2023-02-06T09:24:24.680Z,29.38
2023-02-06T09:26:59.806Z,24.95
2023-02-06T09:29:32.270Z,27.88
2023-02-06T09:31:59.496Z,30.00
2023-02-06T09:34:27.523Z,26.98
2023-02-06T09:36:54.832Z,24.85
2023-02-06T09:39:22.172Z,28.70
2023-02-06T09:42:04.116Z,24.52
2023-02-06T09:44:43.517Z,23.65
2023-02-06T09:47:31.422Z,24.70
2023-02-06T09:50:02.961Z,24.00
2023-02-06T09:52:44.365Z,23.73
2023-02-06T09:55:44.298Z,24.98
2023-02-06T10:01:21.835Z,24.35
2023-02-06T10:04:15.342Z,21.40
2023-02-06T10:06:44.349Z,23.50
2023-02-06T10:09:36.682Z,20.35
2023-02-06T10:12:17.504Z,20.85
2023-02-06T10:15:07.632Z,18.02
2023-02-06T10:17:44.321Z,20.83
2023-02-06T10:20:15.819Z,19.25
2023-02-06T10:22:44.345Z,15.07
2023-02-06T10:25:44.246Z,16.65
2023-02-06T10:28:31.318Z,15.02
2023-02-06T10:31:10.090Z,19.48
2023-02-06T10:33:44.296Z,18.75
2023-02-06T10:36:23.043Z,17.20
2023-02-06T10:39:18.511Z,22.83
2023-02-06T10:41:56.849Z,19.73
2023-02-06T10:44:33.106Z,17.45
2023-02-06T10:47:00.551Z,16.90
2023-02-06T10:49:43.340Z,17.40
2023-02-06T10:52:25.355Z,19.67
2023-02-06T10:54:55.743Z,25.67
2023-02-06T10:57:28.741Z,24.05
2023-02-06T11:00:00.302Z,16.42
2023-02-06T11:02:39.297Z,17.35
2023-02-06T11:05:19.705Z,19.65
2023-02-06T11:07:53.132Z,16.55
2023-02-06T11:10:22.879Z,15.23
2023-02-06T11:13:33.941Z,17.38
2023-02-06T11:16:04.964Z,20.30
2023-02-06T11:21:11.958Z,17.02
2023-02-06T11:23:39.569Z,17.45
2023-02-06T11:26:17.341Z,19.98
2023-02-06T11:28:58.434Z,14.32
2023-02-06T11:31:41.213Z,16.33
2023-02-06T11:34:21.979Z,15.95
2023-02-06T11:36:52.884Z,13.80
2023-02-06T11:39:27.726Z,17.77
2023-02-06T11:42:06.482Z,15.35
2023-02-06T11:44:45.471Z,12.65
2023-02-06T11:47:21.488Z,16.27
2023-02-06T11:49:48.481Z,14.98
2023-02-06T11:52:30.503Z,17.75
2023-02-06T11:55:02.329Z,19.23
2023-02-06T11:57:34.245Z,11.50
2023-02-06T12:00:19.621Z,14.10
2023-02-06T12:02:54.234Z,11.43
2023-02-06T12:05:25.496Z,13.48
2023-02-06T12:08:00.522Z,14.52
2023-02-06T12:10:32.165Z,11.32
2023-02-06T12:13:20.289Z,11.88
2023-02-06T12:15:50.688Z,14.43
2023-02-06T12:18:36.496Z,10.38
2023-02-06T12:21:17.165Z,13.65
2023-02-06T12:23:54.109Z,12.40
2023-02-06T12:26:24.365Z,12.93
2023-02-06T12:29:08.302Z,13.48
2023-02-06T12:31:41.778Z,14.80
2023-02-06T12:34:14.173Z,16.33
2023-02-06T12:36:43.425Z,16.30
2023-02-06T12:39:19.812Z,15.52
2023-02-06T12:42:12.471Z,15.10
2023-02-06T12:44:44.454Z,12.52
2023-02-06T12:47:22.842Z,12.65
2023-02-06T12:49:54.255Z,14.05
2023-02-06T12:52:31.434Z,20.48
2023-02-06T12:55:08.341Z,16.52
2023-02-06T12:57:37.306Z,12.30
2023-02-06T13:00:38.676Z,13.98
2023-02-06T13:03:28.747Z,10.10
2023-02-06T13:06:22.732Z,12.40
2023-02-06T13:09:09.631Z,11.15
2023-02-06T13:11:39.273Z,6.95
2023-02-06T13:14:17.838Z,9.25
2023-02-06T13:16:52.961Z,9.25
2023-02-06T13:19:44.768Z,9.88
2023-02-06T13:22:11.447Z,10.13
2023-02-06T13:24:44.655Z,11.23
2023-02-06T13:27:16.978Z,8.57
2023-02-06T13:29:43.513Z,9.77
2023-02-06T13:32:15.836Z,11.52
2023-02-06T13:34:44.603Z,9.20
2023-02-06T13:37:35.499Z,8.90
2023-02-06T13:40:26.853Z,12.60
2023-02-06T13:43:13.945Z,9.10
2023-02-06T13:48:46.589Z,9.55
2023-02-06T13:51:39.550Z,9.02
2023-02-06T13:54:41.401Z,9.10
2023-02-06T13:57:17.282Z,9.15
2023-02-06T14:00:19.373Z,7.78
2023-02-06T14:02:57.395Z,8.98
2023-02-06T14:05:44.680Z,4.55
2023-02-06T14:08:18.588Z,5.55
2023-02-06T14:11:04.024Z,7.75
2023-02-06T14:13:44.476Z,7.47
2023-02-06T14:16:44.384Z,5.50
2023-02-06T14:19:24.546Z,5.38
2023-02-06T14:22:05.546Z,5.63
2023-02-06T14:24:44.508Z,3.28
2023-02-06T14:27:27.575Z,5.82
2023-02-06T14:30:36.283Z,7.82
2023-02-06T14:33:11.498Z,9.13
2023-02-06T14:35:44.380Z,3.35
2023-02-06T14:38:26.066Z,4.53
2023-02-06T14:40:55.423Z,3.65
2023-02-06T14:43:28.736Z,4.43
2023-02-06T14:46:06.907Z,7.72
2023-02-06T14:48:44.550Z,4.80
2023-02-06T14:51:26.605Z,4.43
2023-02-06T14:53:57.718Z,9.35
2023-02-06T14:56:36.852Z,3.90
2023-02-06T14:59:12.832Z,6.18
2023-02-06T15:01:40.607Z,6.25
2023-02-06T15:04:15.210Z,4.97
2023-02-06T15:06:44.424Z,4.45
2023-02-06T15:09:29.404Z,4.65
2023-02-06T15:11:59.789Z,9.35
2023-02-06T15:14:32.047Z,9.07
2023-02-06T15:17:03.029Z,5.75
2023-02-06T15:19:32.929Z,6.22
2023-02-06T15:22:02.666Z,7.85
2023-02-06T15:24:35.039Z,6.03
2023-02-06T15:27:35.592Z,4.28
2023-02-06T15:30:20.894Z,3.65
2023-02-06T15:32:52.769Z,4.40
2023-02-06T15:35:33.258Z,5.03
2023-02-06T15:38:10.490Z,4.05
2023-02-06T15:43:20.147Z,6.75
2023-02-06T15:45:50.286Z,11.20
2023-02-06T15:48:40.602Z,6.72
2023-02-06T15:51:08.755Z,7.10
2023-02-06T15:53:38.871Z,5.72
2023-02-06T15:56:09.806Z,4.68
2023-02-06T15:58:38.149Z,5.43
2023-02-06T16:01:13.321Z,6.05
2023-02-06T16:03:41.641Z,7.75
2023-02-06T16:06:16.421Z,6.35
2023-02-06T16:08:45.627Z,8.43
2023-02-06T16:11:30.957Z,6.15
2023-02-06T16:13:58.076Z,7.45
2023-02-06T16:16:27.054Z,7.40
2023-02-06T16:18:57.493Z,7.63
2023-02-06T16:21:27.170Z,5.20
2023-02-06T16:24:07.073Z,7.60
2023-02-06T16:26:44.447Z,7.22
2023-02-06T16:29:11.612Z,10.55
2023-02-06T16:34:30.843Z,8.73
2023-02-06T16:36:57.873Z,6.60
2023-02-06T16:39:28.245Z,5.45
2023-02-06T16:41:55.107Z,7.68
2023-02-06T16:44:21.886Z,6.65
2023-02-06T16:46:48.708Z,9.80
2023-02-06T16:49:22.819Z,7.70
2023-02-06T16:51:52.938Z,7.78
2023-02-06T16:54:32.135Z,8.80
2023-02-06T16:57:09.702Z,9.50
2023-02-06T16:59:37.989Z,9.68
2023-02-06T17:02:16.672Z,9.35
2023-02-06T17:04:44.502Z,9.32
2023-02-06T17:07:26.523Z,10.75
2023-02-06T17:09:55.439Z,12.10
2023-02-06T17:12:23.591Z,9.65
2023-02-06T17:14:50.410Z,7.32
2023-02-06T17:17:20.879Z,12.13
2023-02-06T17:19:49.877Z,9.98
2023-02-06T17:22:16.987Z,9.85
2023-02-06T17:24:44.735Z,11.48
2023-02-06T17:27:20.400Z,13.50
2023-02-06T17:29:47.948Z,12.38
2023-02-06T17:32:16.399Z,15.02
2023-02-06T17:34:44.828Z,12.90
2023-02-06T17:37:20.883Z,14.40
2023-02-06T17:39:52.117Z,10.85
2023-02-06T17:42:19.953Z,17.83
2023-02-06T17:44:46.959Z,11.55
2023-02-06T17:47:19.803Z,16.50
2023-02-06T17:49:47.294Z,10.68
2023-02-06T17:52:18.021Z,10.40
2023-02-06T17:54:44.969Z,15.65
2023-02-06T17:57:13.760Z,8.55
2023-02-06T17:59:40.761Z,11.17
2023-02-06T18:02:07.595Z,10.57
2023-02-06T18:04:34.486Z,13.18
2023-02-06T18:07:01.351Z,8.13
2023-02-06T18:09:28.219Z,9.52
2023-02-06T18:11:55.324Z,11.18
2023-02-06T18:14:22.165Z,13.13
2023-02-06T18:16:48.928Z,11.35
2023-02-06T18:19:17.280Z,10.07
2023-02-06T18:21:44.013Z,11.70
2023-02-06T18:24:10.812Z,12.25
2023-02-06T18:26:37.714Z,11.50
2023-02-06T18:29:05.853Z,7.82
2023-02-06T18:31:37.357Z,11.68
2023-02-06T18:34:08.116Z,13.57
2023-02-06T18:36:36.790Z,10.15
2023-02-06T18:39:06.749Z,11.65
2023-02-06T18:44:10.658Z,9.30
2023-02-06T18:46:38.186Z,11.85
2023-02-06T18:49:08.820Z,14.90
2023-02-06T18:51:35.951Z,10.23
2023-02-06T18:54:04.353Z,13.27
2023-02-06T18:56:31.431Z,9.73
2023-02-06T18:58:59.094Z,10.63
2023-02-06T19:01:26.814Z,8.60
2023-02-06T19:03:54.148Z,10.38
2023-02-06T19:06:32.959Z,10.57
2023-02-06T19:08:59.922Z,10.95
2023-02-06T19:11:27.451Z,7.63
2023-02-06T19:13:54.736Z,9.75
2023-02-06T19:16:22.097Z,12.40
2023-02-06T19:18:49.873Z,13.18
2023-02-06T19:21:19.760Z,9.02
2023-02-06T19:23:53.589Z,10.00
2023-02-06T19:26:20.421Z,9.48
2023-02-06T19:28:50.429Z,10.60
2023-02-06T19:31:27.304Z,9.63
2023-02-06T19:33:58.359Z,10.45
2023-02-06T19:36:26.793Z,8.55
2023-02-06T19:38:57.958Z,9.40
2023-02-06T19:41:27.047Z,11.40
2023-02-06T19:43:55.711Z,8.13
2023-02-06T19:46:25.458Z,7.72
2023-02-06T19:48:56.577Z,8.38
2023-02-06T19:51:27.682Z,11.23
2023-02-06T19:53:57.322Z,6.75
2023-02-06T19:56:26.026Z,6.38
2023-02-06T19:58:58.204Z,7.57
2023-02-06T20:01:26.222Z,7.70
2023-02-06T20:03:53.108Z,6.60
2023-02-06T20:06:20.270Z,7.05
2023-02-06T20:08:47.595Z,9.18
2023-02-06T20:11:18.095Z,6.07
2023-02-06T20:13:47.544Z,9.48
2023-02-06T20:16:24.067Z,10.30
2023-02-06T20:18:51.629Z,10.20
2023-02-06T20:21:26.980Z,8.20
2023-02-06T20:23:55.699Z,8.77
2023-02-06T20:26:25.610Z,8.23
2023-02-06T20:28:56.364Z,9.93
2023-02-06T20:31:24.018Z,6.35
2023-02-06T20:33:51.473Z,8.88
2023-02-06T20:36:24.734Z,8.73
2023-02-06T20:38:57.890Z,7.10
2023-02-06T20:41:29.718Z,8.57
2023-02-06T20:44:01.972Z,8.15
2023-02-06T20:46:36.258Z,6.70
2023-02-06T20:49:06.785Z,6.85
2023-02-06T20:51:33.608Z,7.78
2023-02-06T20:54:00.590Z,8.48
2023-02-06T20:56:28.277Z,7.28
2023-02-06T20:58:56.790Z,8.63
2023-02-06T21:01:27.065Z,8.75
2023-02-06T21:04:07.333Z,9.52
2023-02-06T21:06:36.053Z,8.60
2023-02-06T21:09:04.662Z,9.40
2023-02-06T21:11:35.426Z,7.03
2023-02-06T21:14:08.830Z,13.07
2023-02-06T21:16:37.889Z,7.90
2023-02-06T21:19:10.322Z,9.00
2023-02-06T21:21:41.318Z,8.40
2023-02-06T21:24:08.983Z,9.30
2023-02-06T21:26:37.107Z,11.32
2023-02-06T21:29:10.503Z,8.88
2023-02-06T21:31:38.855Z,11.30
2023-02-06T21:34:13.719Z,8.95
2023-02-06T21:36:41.437Z,13.68
2023-02-06T21:39:09.493Z,11.23
2023-02-06T21:41:37.274Z,9.25
2023-02-06T21:44:04.593Z,10.00
2023-02-06T21:46:31.405Z,10.52
2023-02-06T21:49:00.702Z,10.90
2023-02-06T21:51:27.966Z,10.23
2023-02-06T21:53:56.694Z,9.57
2023-02-06T21:56:31.420Z,10.25
2023-02-06T21:58:58.703Z,9.98
2023-02-06T22:01:30.951Z,14.38
2023-02-06T22:03:58.398Z,7.53
2023-02-06T22:06:26.172Z,11.30
2023-02-06T22:08:54.422Z,9.88
2023-02-06T22:11:29.620Z,8.68
2023-02-06T22:14:01.971Z,10.20
2023-02-06T22:16:29.832Z,9.13
2023-02-06T22:19:06.266Z,9.07
2023-02-06T22:21:34.530Z,10.98
2023-02-06T22:24:07.316Z,10.98
2023-02-06T22:26:38.896Z,7.20
2023-02-06T22:29:07.866Z,11.50
2023-02-06T22:31:35.522Z,11.23
2023-02-06T22:34:03.268Z,10.10
2023-02-06T22:36:32.263Z,8.30
2023-02-06T22:39:04.128Z,9.88
2023-02-06T22:41:31.309Z,11.98
2023-02-06T22:43:58.570Z,11.65
2023-02-06T22:46:28.062Z,8.88
2023-02-06T22:48:56.084Z,10.27
2023-02-06T22:51:23.464Z,8.35
2023-02-06T22:53:50.808Z,8.57
2023-02-06T22:56:31.889Z,10.32
2023-02-06T22:59:00.377Z,10.63
2023-02-06T23:01:39.352Z,11.13
2023-02-06T23:04:08.528Z,12.35
2023-02-06T23:06:36.396Z,10.25
2023-02-06T23:09:05.831Z,11.02
2023-02-06T23:11:33.665Z,10.25
2023-02-06T23:14:06.267Z,10.15
2023-02-06T23:16:34.953Z,11.20
2023-02-06T23:19:04.894Z,10.75
2023-02-06T23:21:34.639Z,13.40
2023-02-06T23:24:01.739Z,11.88
2023-02-06T23:26:30.213Z,13.13
2023-02-06T23:28:59.362Z,11.65
2023-02-06T23:31:30.040Z,30.70
2023-02-06T23:33:57.148Z,16.30
2023-02-06T23:36:26.489Z,16.67
2023-02-06T23:38:56.495Z,17.63
2023-02-06T23:41:26.204Z,15.07
2023-02-06T23:44:02.064Z,15.63
2023-02-06T23:46:31.348Z,14.50
2023-02-06T23:48:58.925Z,14.13
2023-02-06T23:51:26.433Z,11.90
2023-02-06T23:53:53.230Z,15.63
2023-02-06T23:56:23.551Z,17.67
2023-02-06T23:58:51.339Z,18.23
